Miramar, Argentina
Current Conditions -  °F | °C
As of 10:00 PM on Friday 31 Oct 2014 (Local Time) from SACO Reporting Station
Drizzle Drizzle  
Wind Chill: 15°   Ceiling: 1500
Heat Index: 15°   Visibility: 5mi
Dew Point:   Wind: 9mph
Humidity: 59%   Direction: 200°SSW
Pressure: 30.12"   Gusts: NA
Location:  30.9°S, 62.67°W
Report Text: SACO 010100Z 20008KT 8000 -DZ SCT008BKN015 15/07 Q1020
Loading
Personal Weather Stations






























Interactive Weather Map
Tropical Storm Tracking
New forecast layout! Learn more

10-Day Weather Forecast

Advertisements
Track Severe Weather on mobile